Lady Lauren — WDE7767 — position and weather

sailwx.info

Track history (hours):
 
Tides and Currents Weather Stations Pressure Air Temp Water Temp Dewpoint Dewpoint Depression Visibility Wind Speed Wind Dir Waves Ship Positions

Lady Lauren

Owner: Louisiana Marine Towing LLC, Lafayette, LA. More information available from US FCC via Universal Licensing System and Coast Guard Vessel Documentation Center.

Last reported at 2015-May-15 16:33 UTC. Time now 2015-May-29 08:10 UTC.
Position N 29°32' W 090°47'.
Warning: this ship's position is 13 days out of date.

Length 22 m; draft 2.1 m.

Type: Towing. MMSI: 367397380.

Date/timePositionNaut miles runAvg speedWind from/ knotsBaromVisibWave heightAir tempDewpointWater temp
2015-May-15 16:33N 29°32' W 090°47'5 4.7
2015-May-15 15:33N 29°35' W 090°43'4 3.6
2015-May-15 14:33N 29°36' W 090°39'5 4.7
2015-May-15 13:31N 29°34' W 090°34'  
2015-May-11 01:05N 29°54' W 090°05'2 1.1
2015-May-10 23:15N 29°52' W 090°04'5 0.6
2015-May-10 15:29N 29°54' W 089°59'5 0.5
2015-May-10 05:32N 29°51' W 090°02'6 3.1
2015-May-10 03:28N 29°55' W 089°57'5 4.9
2015-May-10 02:28N 29°58' W 090°02'0 0.3
2015-May-10 01:04N 29°58' W 090°02'1 1.1
2015-May-10 00:26N 29°59' W 090°01'1 1.4
2015-May-09 23:33N 30°00' W 090°02'0 0.0
2015-May-09 22:19N 30°00' W 090°02'0 0.0
2015-May-09 21:33N 30°00' W 090°02'0 0.0
2015-May-09 20:33N 30°00' W 090°02'0 0.0
2015-May-09 19:33N 30°00' W 090°02'0 0.1
2015-May-09 18:33N 30°00' W 090°02'0 0.1
2015-May-09 17:27N 30°00' W 090°02'0 0.0
2015-May-09 16:33N 30°00' W 090°02'0 0.1
2015-May-09 15:28N 30°00' W 090°02'0 0.1
2015-May-09 14:27N 30°00' W 090°02'0 0.0
2015-May-09 13:29N 30°00' W 090°02'0 0.0
2015-May-09 11:25N 30°00' W 090°02'0 0.1
2015-May-09 10:16N 30°00' W 090°02'0 0.0
2015-May-08 20:15N 30°00' W 090°02'0 0.0
2015-May-08 17:22N 30°00' W 090°02'0 0.0
2015-May-08 16:12N 30°00' W 090°02'0 0.0
2015-May-08 15:31N 30°00' W 090°02'0 0.0
2015-May-08 11:32N 30°00' W 090°02'0 0.1
2015-May-08 10:32N 30°00' W 090°02'1 1.4
2015-May-08 09:31N 29°59' W 090°01'1 1.2
2015-May-08 08:21N 29°57' W 090°02'1 0.8
2015-May-08 07:28N 29°57' W 090°02'0 0.0
2015-May-08 06:29N 29°57' W 090°02'0 0.0
2015-May-08 05:32N 29°57' W 090°02'0 0.0
2015-May-08 04:31N 29°57' W 090°02'0 0.0
2015-May-08 03:32N 29°57' W 090°02'0 0.0
2015-May-08 02:19N 29°57' W 090°02'0 0.0
2015-May-08 01:32N 29°57' W 090°02'0 0.0
2015-May-08 00:33N 29°57' W 090°02'0 0.0
2015-May-07 23:33N 29°57' W 090°02'0 0.0
2015-May-07 22:31N 29°57' W 090°02'0 0.0
2015-May-07 21:33N 29°57' W 090°02'0 0.0
2015-May-07 20:31N 29°57' W 090°02'0 0.0
2015-May-07 19:32N 29°57' W 090°02'0 0.0
2015-May-07 18:31N 29°57' W 090°02'0 0.0
2015-May-07 17:33N 29°57' W 090°02'0 0.1
2015-May-07 16:33N 29°57' W 090°02'4 3.6
2015-May-07 15:32N 29°55' W 090°05'2 2.0
2015-May-07 14:21N 29°52' W 090°04'0 0.4
2015-May-07 13:32N 29°52' W 090°04'3 2.0
2015-May-07 12:16N 29°51' W 090°01'5 0.4
2015-May-06 23:29N 29°56' W 089°60'0 0.0
2015-May-06 20:16N 29°56' W 089°60'0 0.0
2015-May-06 19:28N 29°56' W 089°60'0 0.0
2015-May-06 18:26N 29°56' W 089°60'0 0.0
2015-May-06 17:26N 29°56' W 089°60'0 0.0
2015-May-06 16:13N 29°56' W 089°60'0 0.0
2015-May-06 15:09N 29°56' W 089°60'0 0.0
2015-May-06 14:32N 29°56' W 089°60'0 0.0
2015-May-06 13:24N 29°56' W 089°60'0 0.0
2015-May-06 12:25N 29°56' W 089°60'0 0.0
2015-May-06 11:30N 29°56' W 089°60'0 0.0
2015-May-06 10:25N 29°56' W 089°60'0 0.0
2015-May-06 09:28N 29°56' W 089°60'0 0.0
2015-May-06 08:14N 29°56' W 089°60'0 0.0
2015-May-06 07:14N 29°56' W 089°60'0 0.0
2015-May-06 06:05N 29°56' W 089°60'3 1.0
2015-May-06 03:03N 29°55' W 089°56'0 0.3
2015-May-06 02:15N 29°55' W 089°56'2 1.2
2015-May-06 00:22N 29°55' W 089°59'  
Track history (hours):
 
Tides and Currents Weather Stations Pressure Air Temp Water Temp Dewpoint Dewpoint Depression Visibility Wind Speed Wind Dir Waves Ship Positions

Lady Lauren

Owner: Louisiana Marine Towing LLC, Lafayette, LA. More information available from US FCC via Universal Licensing System and Coast Guard Vessel Documentation Center.

Last reported at 2015-May-15 16:33 UTC. Time now 2015-May-29 08:10 UTC.
Position N 29°32' W 090°47'.
Warning: this ship's position is 13 days out of date.

Length 22 m; draft 2.1 m.

Type: Towing. MMSI: 367397380.

Date/timePositionNaut miles runAvg speedWind from/ knotsBaromVisibWave heightAir tempDewpointWater temp
2015-May-15 16:33N 29°32' W 090°47'5 4.7
2015-May-15 15:33N 29°35' W 090°43'4 3.6
2015-May-15 14:33N 29°36' W 090°39'5 4.7
2015-May-15 13:31N 29°34' W 090°34'  
2015-May-11 01:05N 29°54' W 090°05'2 1.1
2015-May-10 23:15N 29°52' W 090°04'5 0.6
2015-May-10 15:29N 29°54' W 089°59'5 0.5
2015-May-10 05:32N 29°51' W 090°02'6 3.1
2015-May-10 03:28N 29°55' W 089°57'5 4.9
2015-May-10 02:28N 29°58' W 090°02'0 0.3
2015-May-10 01:04N 29°58' W 090°02'1 1.1
2015-May-10 00:26N 29°59' W 090°01'1 1.4
2015-May-09 23:33N 30°00' W 090°02'0 0.0
2015-May-09 22:19N 30°00' W 090°02'0 0.0
2015-May-09 21:33N 30°00' W 090°02'0 0.0
2015-May-09 20:33N 30°00' W 090°02'0 0.0
2015-May-09 19:33N 30°00' W 090°02'0 0.1
2015-May-09 18:33N 30°00' W 090°02'0 0.1
2015-May-09 17:27N 30°00' W 090°02'0 0.0
2015-May-09 16:33N 30°00' W 090°02'0 0.1
2015-May-09 15:28N 30°00' W 090°02'0 0.1
2015-May-09 14:27N 30°00' W 090°02'0 0.0
2015-May-09 13:29N 30°00' W 090°02'0 0.0
2015-May-09 11:25N 30°00' W 090°02'0 0.1
2015-May-09 10:16N 30°00' W 090°02'0 0.0
2015-May-08 20:15N 30°00' W 090°02'0 0.0
2015-May-08 17:22N 30°00' W 090°02'0 0.0
2015-May-08 16:12N 30°00' W 090°02'0 0.0
2015-May-08 15:31N 30°00' W 090°02'0 0.0
2015-May-08 11:32N 30°00' W 090°02'0 0.1
2015-May-08 10:32N 30°00' W 090°02'1 1.4
2015-May-08 09:31N 29°59' W 090°01'1 1.2
2015-May-08 08:21N 29°57' W 090°02'1 0.8
2015-May-08 07:28N 29°57' W 090°02'0 0.0
2015-May-08 06:29N 29°57' W 090°02'0 0.0
2015-May-08 05:32N 29°57' W 090°02'0 0.0
2015-May-08 04:31N 29°57' W 090°02'0 0.0
2015-May-08 03:32N 29°57' W 090°02'0 0.0
2015-May-08 02:19N 29°57' W 090°02'0 0.0
2015-May-08 01:32N 29°57' W 090°02'0 0.0
2015-May-08 00:33N 29°57' W 090°02'0 0.0
2015-May-07 23:33N 29°57' W 090°02'0 0.0
2015-May-07 22:31N 29°57' W 090°02'0 0.0
2015-May-07 21:33N 29°57' W 090°02'0 0.0
2015-May-07 20:31N 29°57' W 090°02'0 0.0
2015-May-07 19:32N 29°57' W 090°02'0 0.0
2015-May-07 18:31N 29°57' W 090°02'0 0.0
2015-May-07 17:33N 29°57' W 090°02'0 0.1
2015-May-07 16:33N 29°57' W 090°02'4 3.6
2015-May-07 15:32N 29°55' W 090°05'2 2.0
2015-May-07 14:21N 29°52' W 090°04'0 0.4
2015-May-07 13:32N 29°52' W 090°04'3 2.0
2015-May-07 12:16N 29°51' W 090°01'5 0.4
2015-May-06 23:29N 29°56' W 089°60'0 0.0
2015-May-06 20:16N 29°56' W 089°60'0 0.0
2015-May-06 19:28N 29°56' W 089°60'0 0.0
2015-May-06 18:26N 29°56' W 089°60'0 0.0
2015-May-06 17:26N 29°56' W 089°60'0 0.0
2015-May-06 16:13N 29°56' W 089°60'0 0.0
2015-May-06 15:09N 29°56' W 089°60'0 0.0
2015-May-06 14:32N 29°56' W 089°60'0 0.0
2015-May-06 13:24N 29°56' W 089°60'0 0.0
2015-May-06 12:25N 29°56' W 089°60'0 0.0
2015-May-06 11:30N 29°56' W 089°60'0 0.0
2015-May-06 10:25N 29°56' W 089°60'0 0.0
2015-May-06 09:28N 29°56' W 089°60'0 0.0
2015-May-06 08:14N 29°56' W 089°60'0 0.0
2015-May-06 07:14N 29°56' W 089°60'0 0.0
2015-May-06 06:05N 29°56' W 089°60'3 1.0
2015-May-06 03:03N 29°55' W 089°56'0 0.3
2015-May-06 02:15N 29°55' W 089°56'2 1.2
2015-May-06 00:22N 29°55' W 089°59'  

Dump ship's entire track history